Time;durP1;ratioP1;P1;durP2;ratioP2;P2;SDS_P1;SDS_P2;PMS_P1;PMS_P2;Temp;Humidity;BMP_temperature;BMP_pressure;BME280_temperature;BME280_humidity;BME280_pressure;Samples;Min_cycle;Max_cycle;Signal;HPM_P1;HPM_P2
2022/08/27 00:00:31;;;;;;;23.73;21.23;;;20.80;99.90;;;;;;5056628;28;20454;-83
2022/08/27 00:02:59;;;;;;;23.77;20.47;;;20.90;99.90;;;;;;5050423;28;20424;-83
2022/08/27 00:05:25;;;;;;;22.63;20.43;;;21.00;99.90;;;;;;5046092;28;20476;-83
2022/08/27 00:07:52;;;;;;;22.20;20.00;;;20.90;99.90;;;;;;5040926;28;20830;-84
2022/08/27 00:10:23;;;;;;;22.20;20.07;;;21.00;99.90;;;;;;5045369;28;20490;-83
2022/08/27 00:12:50;;;;;;;21.77;19.70;;;20.90;99.90;;;;;;5046820;28;20890;-83
2022/08/27 00:15:18;;;;;;;23.40;21.17;;;20.80;99.90;;;;;;5044330;28;20450;-83
2022/08/27 00:17:46;;;;;;;25.50;23.20;;;20.80;99.90;;;;;;5043743;28;20471;-83
2022/08/27 00:20:15;;;;;;;28.97;26.07;;;20.80;99.90;;;;;;5043012;28;20875;-83
2022/08/27 00:22:42;;;;;;;29.10;26.30;;;20.80;99.90;;;;;;5043612;28;20429;-83
2022/08/27 00:25:09;;;;;;;28.60;26.00;;;20.80;99.90;;;;;;5045998;28;20445;-83
2022/08/27 00:27:36;;;;;;;27.80;25.30;;;20.70;99.90;;;;;;5044390;28;20465;-84
2022/08/27 00:30:07;;;;;;;28.23;25.67;;;20.70;99.90;;;;;;5044576;28;20432;-84
2022/08/27 00:32:34;;;;;;;30.30;27.30;;;20.80;99.90;;;;;;5049065;28;20441;-83
2022/08/27 00:35:02;;;;;;;28.07;25.43;;;20.80;99.90;;;;;;5062854;28;20504;-82
2022/08/27 00:37:28;;;;;;;29.43;26.43;;;20.70;99.90;;;;;;5061111;28;20457;-83
2022/08/27 00:39:55;;;;;;;27.33;24.80;;;20.70;99.90;;;;;;5056028;28;20436;-82
2022/08/27 00:42:22;;;;;;;28.80;26.03;;;20.80;99.90;;;;;;5049027;28;20438;-84
2022/08/27 00:44:48;;;;;;;28.80;25.90;;;20.80;99.90;;;;;;5044824;28;20464;-82
2022/08/27 00:47:19;;;;;;;32.73;29.77;;;20.80;99.90;;;;;;5046844;28;20456;-83
2022/08/27 00:49:50;;;;;;;34.10;30.77;;;20.90;99.90;;;;;;5046393;28;21110;-83
2022/08/27 00:52:22;;;;;;;29.83;27.00;;;20.90;99.90;;;;;;5044749;28;20449;-83
2022/08/27 00:54:51;;;;;;;31.63;28.83;;;20.90;99.90;;;;;;5046319;28;20526;-82
2022/08/27 00:57:18;;;;;;;33.27;29.87;;;20.90;99.90;;;;;;5051112;28;20949;-82
2022/08/27 00:59:46;;;;;;;34.00;30.83;;;20.90;99.90;;;;;;5055039;28;20976;-83
2022/08/27 01:02:19;;;;;;;29.87;26.73;;;20.90;99.90;;;;;;5054332;28;20961;-82
2022/08/27 01:04:49;;;;;;;32.47;29.50;;;20.90;99.90;;;;;;5062721;28;20451;-82
2022/08/27 01:07:17;;;;;;;30.40;27.40;;;21.00;99.90;;;;;;5070546;28;20540;-82
2022/08/27 01:09:46;;;;;;;31.60;28.50;;;21.00;99.90;;;;;;5057841;28;20537;-83
2022/08/27 01:12:14;;;;;;;30.93;28.07;;;20.90;99.90;;;;;;5059243;28;20495;-82
2022/08/27 01:14:43;;;;;;;30.93;28.10;;;20.90;99.90;;;;;;5055255;28;20518;-83
2022/08/27 01:17:11;;;;;;;30.07;27.37;;;20.90;99.90;;;;;;5055246;28;20448;-82
2022/08/27 01:19:43;;;;;;;29.63;26.97;;;20.90;99.90;;;;;;5054662;28;20453;-83
2022/08/27 01:22:19;;;;;;;29.80;27.03;;;20.90;99.90;;;;;;5055709;28;20942;-82
2022/08/27 01:24:50;;;;;;;30.47;27.33;;;20.80;99.90;;;;;;5065192;28;20480;-82
2022/08/27 01:27:19;;;;;;;30.93;27.83;;;20.90;99.90;;;;;;5067244;28;20542;-82
2022/08/27 01:29:46;;;;;;;31.17;28.27;;;20.90;99.90;;;;;;5061857;28;20475;-82
2022/08/27 01:32:15;;;;;;;31.57;28.60;;;20.80;99.90;;;;;;5070058;28;20510;-82
2022/08/27 01:34:42;;;;;;;30.60;27.70;;;20.90;99.90;;;;;;5060071;28;20483;-82
2022/08/27 01:37:10;;;;;;;30.33;27.33;;;20.90;99.90;;;;;;5056192;28;20448;-83
2022/08/27 01:39:38;;;;;;;31.37;27.93;;;21.00;99.90;;;;;;5056848;28;20941;-82
2022/08/27 01:42:09;;;;;;;32.00;28.83;;;21.00;99.90;;;;;;5072554;28;20437;-81
2022/08/27 01:44:46;;;;;;;32.17;29.37;;;21.00;99.90;;;;;;5077334;28;20500;-83
2022/08/27 01:47:13;;;;;;;31.77;28.77;;;21.00;99.90;;;;;;5075647;28;20460;-82
2022/08/27 01:49:40;;;;;;;30.97;27.93;;;21.00;99.90;;;;;;5071525;28;20440;-82
2022/08/27 01:52:06;;;;;;;32.17;29.10;;;21.00;99.90;;;;;;5061351;28;20996;-82
2022/08/27 01:54:33;;;;;;;32.17;28.93;;;21.00;99.90;;;;;;5053568;28;20488;-82
2022/08/27 01:57:00;;;;;;;36.77;32.97;;;21.00;99.90;;;;;;5053188;28;20452;-83
2022/08/27 01:59:28;;;;;;;35.63;32.23;;;21.00;99.90;;;;;;5054219;28;20460;-82
2022/08/27 02:01:56;;;;;;;34.20;30.87;;;21.00;99.90;;;;;;5053929;28;20975;-83
2022/08/27 02:04:23;;;;;;;35.57;32.20;;;21.10;99.90;;;;;;5055594;28;20926;-82
2022/08/27 02:06:50;;;;;;;34.73;31.47;;;21.10;99.90;;;;;;5054162;28;20451;-82
2022/08/27 02:09:16;;;;;;;32.73;29.60;;;21.10;99.90;;;;;;5053545;28;20945;-82
2022/08/27 02:11:43;;;;;;;33.83;30.63;;;21.20;99.90;;;;;;5061542;28;20440;-83
2022/08/27 02:14:10;;;;;;;32.40;29.37;;;21.10;99.90;;;;;;5068569;28;20477;-82
2022/08/27 02:16:38;;;;;;;35.40;32.37;;;21.10;99.90;;;;;;5060132;28;20471;-81
2022/08/27 02:19:05;;;;;;;36.37;32.97;;;21.10;99.90;;;;;;5052537;28;20899;-82
2022/08/27 02:21:32;;;;;;;35.63;32.23;;;21.20;99.90;;;;;;5052671;28;20971;-83
2022/08/27 02:23:58;;;;;;;36.17;32.93;;;21.20;99.90;;;;;;5052342;28;20441;-83
2022/08/27 02:26:26;;;;;;;34.63;31.33;;;21.20;99.90;;;;;;5053895;28;20448;-82
2022/08/27 02:28:53;;;;;;;34.53;31.23;;;21.20;99.90;;;;;;5062670;28;20468;-82
2022/08/27 02:31:19;;;;;;;33.57;30.67;;;21.20;99.90;;;;;;5070253;28;20452;-82
2022/08/27 02:33:48;;;;;;;36.53;32.93;;;21.20;99.90;;;;;;5071057;28;20557;-82
2022/08/27 02:36:14;;;;;;;36.70;33.20;;;21.20;99.90;;;;;;5046889;28;20445;-83
2022/08/27 02:38:42;;;;;;;35.67;32.33;;;21.30;99.90;;;;;;5038129;28;20469;-82
2022/08/27 02:41:08;;;;;;;34.37;30.93;;;21.30;99.90;;;;;;5041577;28;20449;-82
2022/08/27 02:43:35;;;;;;;35.13;31.80;;;21.20;99.90;;;;;;5043669;28;20453;-82
2022/08/27 02:46:02;;;;;;;38.10;34.60;;;21.20;99.90;;;;;;5038225;28;20456;-83
2022/08/27 02:48:29;;;;;;;31.67;28.80;;;21.20;99.90;;;;;;5039200;28;20539;-86
2022/08/27 02:50:57;;;;;;;31.73;28.63;;;21.20;99.90;;;;;;5041509;28;20445;-83
2022/08/27 02:53:24;;;;;;;28.70;26.17;;;21.20;99.90;;;;;;5041980;28;21012;-83
2022/08/27 02:55:51;;;;;;;35.00;31.40;;;21.20;99.90;;;;;;5043392;28;20472;-83
2022/08/27 02:58:18;;;;;;;32.00;29.10;;;21.10;99.90;;;;;;5047223;28;20489;-85
2022/08/27 03:00:47;;;;;;;34.97;31.77;;;21.10;99.90;;;;;;5060041;28;20425;-84
2022/08/27 03:03:14;;;;;;;33.83;30.67;;;21.10;99.90;;;;;;5060950;28;20488;-81
2022/08/27 03:05:41;;;;;;;36.47;32.90;;;21.10;99.90;;;;;;5060260;28;20469;-81
2022/08/27 03:08:09;;;;;;;36.10;32.90;;;21.20;99.90;;;;;;5042922;28;20543;-82
2022/08/27 03:10:36;;;;;;;35.87;32.50;;;21.10;99.90;;;;;;5042627;28;20909;-82
2022/08/27 03:13:04;;;;;;;37.03;33.33;;;21.10;99.90;;;;;;5041129;28;20445;-84
2022/08/27 03:15:31;;;;;;;33.93;30.60;;;21.10;99.90;;;;;;5043031;28;20576;-82
2022/08/27 03:20:43;;;;;;;38.23;34.83;;;21.10;99.90;;;;;;5042592;28;20440;-83
2022/08/27 03:23:13;;;;;;;34.17;31.07;;;21.10;99.90;;;;;;5043226;28;20941;-83
2022/08/27 03:25:44;;;;;;;32.20;29.10;;;21.00;99.90;;;;;;5043912;28;20484;-82
2022/08/27 03:28:13;;;;;;;32.70;29.57;;;20.90;99.90;;;;;;5063057;23;20496;-82
2022/08/27 03:30:40;;;;;;;31.77;28.67;;;20.80;99.90;;;;;;5064134;28;20512;-82
2022/08/27 03:33:07;;;;;;;32.70;29.70;;;20.80;99.90;;;;;;5063513;28;20447;-82
2022/08/27 03:35:34;;;;;;;30.43;27.50;;;20.70;99.90;;;;;;5065918;28;20653;-82
2022/08/27 03:38:01;;;;;;;29.03;26.03;;;20.70;99.90;;;;;;5076132;28;20491;-82
2022/08/27 03:40:30;;;;;;;29.23;26.43;;;20.70;99.90;;;;;;5064183;28;20456;-82
2022/08/27 03:42:57;;;;;;;26.03;23.70;;;20.80;99.90;;;;;;5061508;28;20525;-82
2022/08/27 03:45:26;;;;;;;25.63;23.20;;;20.80;99.90;;;;;;5060304;28;20453;-82
2022/08/27 03:47:53;;;;;;;23.93;21.73;;;20.70;99.90;;;;;;5061719;28;20477;-82
2022/08/27 03:50:19;;;;;;;24.17;22.00;;;20.70;99.90;;;;;;5062470;28;20445;-82
2022/08/27 03:52:46;;;;;;;25.97;23.60;;;20.70;99.90;;;;;;5062541;28;20487;-82
2022/08/27 03:55:14;;;;;;;24.53;22.20;;;20.70;99.90;;;;;;5062447;28;20492;-82
2022/08/27 03:57:42;;;;;;;23.30;21.23;;;20.70;99.90;;;;;;5063422;28;20523;-83
2022/08/27 04:00:10;;;;;;;23.20;21.03;;;20.70;99.90;;;;;;5075563;28;20433;-82
2022/08/27 04:02:37;;;;;;;24.87;22.67;;;20.70;99.90;;;;;;5079213;28;20492;-82
2022/08/27 04:05:04;;;;;;;24.20;22.00;;;20.70;99.90;;;;;;5073890;28;20477;-82
2022/08/27 04:07:32;;;;;;;26.00;23.50;;;20.70;99.90;;;;;;5063303;28;20479;-83
2022/08/27 04:09:58;;;;;;;24.17;21.97;;;20.70;99.90;;;;;;5062321;28;20507;-82
2022/08/27 04:12:25;;;;;;;26.33;24.00;;;20.70;99.90;;;;;;5062356;28;20444;-82
2022/08/27 04:14:53;;;;;;;26.47;23.97;;;20.70;99.90;;;;;;5061078;28;20989;-82
2022/08/27 04:17:20;;;;;;;30.07;27.23;;;20.70;99.90;;;;;;5061475;28;20463;-82
2022/08/27 04:19:47;;;;;;;29.97;27.07;;;20.70;99.90;;;;;;5060747;28;20892;-82
2022/08/27 04:22:13;;;;;;;31.17;28.47;;;20.80;99.90;;;;;;5060733;28;20452;-82
2022/08/27 04:24:40;;;;;;;34.17;30.87;;;20.80;99.90;;;;;;5061482;28;20437;-82
2022/08/27 04:27:07;;;;;;;33.27;29.80;;;20.80;99.90;;;;;;5060018;28;20498;-82
2022/08/27 04:29:34;;;;;;;32.63;29.67;;;20.80;99.90;;;;;;5061254;28;20481;-82
2022/08/27 04:32:03;;;;;;;33.50;30.10;;;20.80;99.90;;;;;;5061183;28;20449;-82
2022/08/27 04:34:30;;;;;;;34.60;31.40;;;20.80;99.90;;;;;;5060656;28;20481;-82
2022/08/27 04:36:58;;;;;;;33.70;30.57;;;20.80;99.90;;;;;;5060675;28;20521;-82
2022/08/27 04:39:25;;;;;;;35.67;32.10;;;20.80;99.90;;;;;;5060723;28;20473;-82
2022/08/27 04:41:53;;;;;;;35.13;31.70;;;20.90;99.90;;;;;;5060709;28;20479;-82
2022/08/27 04:44:20;;;;;;;36.20;32.80;;;20.80;99.90;;;;;;5062678;28;20479;-82
2022/08/27 04:46:47;;;;;;;36.03;32.23;;;20.90;99.90;;;;;;5061745;28;20449;-82
2022/08/27 04:49:16;;;;;;;39.50;35.80;;;20.80;99.90;;;;;;5061863;28;20897;-81
2022/08/27 04:51:43;;;;;;;41.40;37.10;;;20.80;99.90;;;;;;5062206;28;20471;-82
2022/08/27 04:54:10;;;;;;;40.90;36.87;;;20.70;99.90;;;;;;5059648;28;20480;-82
2022/08/27 04:56:38;;;;;;;40.67;36.57;;;20.70;99.90;;;;;;5060445;28;20445;-82
2022/08/27 04:59:08;;;;;;;41.93;37.70;;;20.70;99.90;;;;;;5060496;28;20476;-82
2022/08/27 05:01:34;;;;;;;43.50;39.13;;;20.70;99.90;;;;;;5060350;28;20475;-82
2022/08/27 05:04:01;;;;;;;46.07;41.30;;;20.70;99.90;;;;;;5059118;28;20502;-82
2022/08/27 05:06:30;;;;;;;41.80;37.77;;;20.60;99.90;;;;;;5057883;28;20445;-82
2022/08/27 05:08:57;;;;;;;42.13;37.77;;;20.60;99.90;;;;;;5060568;28;20476;-82
2022/08/27 05:11:26;;;;;;;44.80;40.10;;;20.70;99.90;;;;;;5060290;28;20503;-82
2022/08/27 05:13:52;;;;;;;43.00;38.73;;;20.70;99.90;;;;;;5058846;28;20444;-82
2022/08/27 05:16:21;;;;;;;44.23;39.93;;;20.70;99.90;;;;;;5057984;28;20444;-82
2022/08/27 05:18:49;;;;;;;44.30;40.10;;;20.70;99.90;;;;;;5064588;28;20488;-82
2022/08/27 05:21:17;;;;;;;44.77;40.50;;;20.70;99.90;;;;;;5070751;28;20449;-82
2022/08/27 05:23:46;;;;;;;43.33;39.13;;;20.70;99.90;;;;;;5061096;28;20444;-82
2022/08/27 05:26:13;;;;;;;45.70;41.17;;;20.70;99.90;;;;;;5060942;28;20447;-82
2022/08/27 05:28:40;;;;;;;42.17;36.20;;;20.80;99.90;;;;;;5060619;28;20488;-82
2022/08/27 05:31:11;;;;;;;42.53;38.57;;;20.80;99.90;;;;;;5059765;28;20445;-82
2022/08/27 05:33:39;;;;;;;43.93;39.63;;;20.80;99.90;;;;;;5061494;28;20441;-82
2022/08/27 05:36:07;;;;;;;42.87;38.50;;;20.80;99.90;;;;;;5070877;28;20483;-82
2022/08/27 05:38:35;;;;;;;42.33;38.10;;;20.80;99.90;;;;;;5061476;28;20472;-82
2022/08/27 05:41:05;;;;;;;43.03;38.70;;;20.80;99.90;;;;;;5060032;28;20433;-82
2022/08/27 05:43:32;;;;;;;45.13;40.23;;;20.90;99.90;;;;;;5059791;28;21125;-82
2022/08/27 05:46:02;;;;;;;43.47;39.47;;;20.90;99.90;;;;;;5059107;28;20835;-82
2022/08/27 05:48:29;;;;;;;45.93;41.20;;;21.00;99.90;;;;;;5060445;28;20476;-82
2022/08/27 05:50:56;;;;;;;42.40;38.33;;;21.00;99.90;;;;;;5060880;28;20441;-83
2022/08/27 05:53:23;;;;;;;42.83;38.60;;;21.10;99.90;;;;;;5077518;28;20455;-82
2022/08/27 05:55:49;;;;;;;44.77;40.43;;;21.10;99.90;;;;;;5076781;28;20476;-82
2022/08/27 06:01:05;;;;;;;44.87;40.40;;;21.10;99.90;;;;;;5060746;28;20516;-82
2022/08/27 06:03:31;;;;;;;41.63;37.37;;;21.10;99.90;;;;;;5058931;28;20968;-82
2022/08/27 06:06:02;;;;;;;42.13;38.13;;;21.10;99.90;;;;;;5058184;28;20441;-82
2022/08/27 06:08:29;;;;;;;42.70;38.47;;;21.20;99.90;;;;;;5057978;28;20480;-80
2022/08/27 06:10:56;;;;;;;44.00;39.60;;;21.20;99.90;;;;;;5058466;28;20452;-80
2022/08/27 06:13:24;;;;;;;42.53;38.23;;;21.20;99.90;;;;;;5058154;28;20483;-81
2022/08/27 06:15:51;;;;;;;41.20;37.07;;;21.30;99.90;;;;;;5058445;28;20506;-81
2022/08/27 06:18:17;;;;;;;43.87;39.30;;;21.30;99.90;;;;;;5058484;28;21040;-81
2022/08/27 06:20:44;;;;;;;41.63;37.60;;;21.30;99.90;;;;;;5058921;28;20448;-81
2022/08/27 06:23:10;;;;;;;44.17;39.70;;;21.30;99.90;;;;;;5058803;28;20449;-81
2022/08/27 06:25:40;;;;;;;42.47;38.47;;;21.40;99.90;;;;;;5058168;28;20465;-81
2022/08/27 06:28:07;;;;;;;44.47;40.20;;;21.40;99.90;;;;;;5058573;28;20496;-81
2022/08/27 06:30:36;;;;;;;40.87;36.80;;;21.40;99.90;;;;;;5058336;28;20448;-82
2022/08/27 06:33:02;;;;;;;42.63;38.33;;;21.40;99.90;;;;;;5058973;28;20677;-81
2022/08/27 06:35:29;;;;;;;40.10;36.10;;;21.50;99.90;;;;;;5057728;28;20480;-81
2022/08/27 06:37:56;;;;;;;39.13;35.60;;;21.60;99.90;;;;;;5060462;28;20469;-81
2022/08/27 06:40:24;;;;;;;39.87;35.70;;;21.60;99.90;;;;;;5061503;28;20449;-82
2022/08/27 06:42:51;;;;;;;36.90;33.13;;;21.60;99.90;;;;;;5061770;28;20519;-82
2022/08/27 06:45:18;;;;;;;41.00;37.23;;;21.70;99.90;;;;;;5060312;28;20456;-79
2022/08/27 06:47:46;;;;;;;38.93;35.00;;;21.70;99.90;;;;;;5059373;28;20475;-80
2022/08/27 06:50:13;;;;;;;37.40;34.00;;;21.80;99.90;;;;;;5059345;28;20440;-81
2022/08/27 06:52:40;;;;;;;37.97;34.57;;;21.80;99.90;;;;;;5059539;28;20950;-82
2022/08/27 06:55:10;;;;;;;39.60;35.70;;;21.90;99.90;;;;;;5058823;28;20506;-82
2022/08/27 06:57:36;;;;;;;38.07;34.47;;;21.90;99.90;;;;;;5057926;28;20449;-82
2022/08/27 07:00:05;;;;;;;37.20;33.57;;;21.90;99.90;;;;;;5057347;28;20871;-81
2022/08/27 07:02:32;;;;;;;39.13;34.97;;;21.90;99.90;;;;;;5055773;28;20455;-81
2022/08/27 07:05:00;;;;;;;36.60;32.93;;;21.80;99.90;;;;;;5056850;28;20445;-81
2022/08/27 07:07:27;;;;;;;38.23;34.73;;;21.90;99.90;;;;;;5056732;28;20452;-81
2022/08/27 07:09:53;;;;;;;36.53;33.23;;;21.80;99.90;;;;;;5064900;28;20452;-81
2022/08/27 07:12:21;;;;;;;38.07;34.23;;;21.90;99.90;;;;;;5064870;28;20445;-81
2022/08/27 07:14:48;;;;;;;36.07;32.70;;;21.90;99.90;;;;;;5056852;28;20502;-80
2022/08/27 07:17:16;;;;;;;36.00;32.80;;;22.00;99.90;;;;;;5062062;28;20437;-81
2022/08/27 07:19:43;;;;;;;36.10;32.70;;;22.10;99.90;;;;;;5061660;28;20468;-81
2022/08/27 07:22:11;;;;;;;36.93;33.67;;;22.30;99.90;;;;;;5061914;28;20976;-81
2022/08/27 07:24:38;;;;;;;36.97;33.00;;;22.40;99.90;;;;;;5062120;28;20523;-81
2022/08/27 07:27:06;;;;;;;36.37;32.93;;;22.40;99.90;;;;;;5062973;28;20448;-81
2022/08/27 07:29:32;;;;;;;34.63;31.63;;;22.60;99.90;;;;;;5074851;28;20495;-81
2022/08/27 07:31:59;;;;;;;34.50;31.17;;;22.60;99.90;;;;;;5064756;28;20443;-81
2022/08/27 07:34:26;;;;;;;34.40;31.10;;;22.70;99.90;;;;;;5063061;28;20448;-81
2022/08/27 07:36:52;;;;;;;32.63;29.67;;;22.90;99.90;;;;;;5062376;28;20484;-81
2022/08/27 07:39:20;;;;;;;35.43;32.10;;;22.90;99.90;;;;;;5062016;28;20533;-81
2022/08/27 07:44:31;;;;;;;31.40;28.63;;;22.70;99.90;;;;;;5061933;28;20455;-81
2022/08/27 07:46:58;;;;;;;32.07;29.10;;;22.60;99.90;;;;;;5061336;28;20445;-81
2022/08/27 07:49:25;;;;;;;31.60;28.83;;;22.60;99.90;;;;;;5056761;28;20514;-81
2022/08/27 07:51:52;;;;;;;31.90;29.10;;;22.50;99.90;;;;;;5068009;28;20413;-81
2022/08/27 07:54:22;;;;;;;33.10;30.00;;;22.50;99.90;;;;;;5075785;28;20471;-81
2022/08/27 07:56:48;;;;;;;31.90;28.63;;;22.50;99.90;;;;;;5075284;28;20465;-80
2022/08/27 07:59:16;;;;;;;31.87;28.80;;;22.50;99.90;;;;;;5062348;28;20468;-81
2022/08/27 08:01:43;;;;;;;34.27;31.37;;;22.60;99.90;;;;;;5054137;28;20456;-81
2022/08/27 08:04:10;;;;;;;36.27;32.97;;;22.60;99.90;;;;;;5054138;28;20449;-81
2022/08/27 08:06:38;;;;;;;33.90;30.50;;;22.50;99.90;;;;;;5052625;28;20445;-81
2022/08/27 08:09:05;;;;;;;33.20;29.93;;;22.50;99.90;;;;;;5052956;28;20813;-81
2022/08/27 08:11:33;;;;;;;36.30;32.90;;;22.50;99.90;;;;;;5052679;28;20442;-81
2022/08/27 08:14:00;;;;;;;37.10;33.17;;;22.50;99.90;;;;;;5052844;28;20495;-81
2022/08/27 08:16:28;;;;;;;36.07;32.50;;;22.50;99.90;;;;;;5050229;28;20511;-81
2022/08/27 08:18:55;;;;;;;37.07;33.20;;;22.50;99.90;;;;;;5052832;28;20997;-81
2022/08/27 08:21:21;;;;;;;36.83;33.30;;;22.50;99.90;;;;;;5052784;28;20449;-81
2022/08/27 08:23:48;;;;;;;33.83;30.80;;;22.40;99.90;;;;;;5051950;28;20433;-81
2022/08/27 08:26:15;;;;;;;37.50;33.87;;;22.30;99.90;;;;;;5052128;28;20447;-81
2022/08/27 08:28:44;;;;;;;36.97;33.30;;;22.30;99.90;;;;;;5052278;28;20464;-81
2022/08/27 08:31:11;;;;;;;37.40;34.10;;;22.20;99.90;;;;;;5052555;28;20448;-82
2022/08/27 08:33:38;;;;;;;37.47;33.73;;;22.10;99.90;;;;;;5052172;28;20495;-82
2022/08/27 08:36:08;;;;;;;38.27;34.40;;;22.00;99.90;;;;;;5052018;28;20483;-81
2022/08/27 08:38:36;;;;;;;36.33;32.80;;;22.00;99.90;;;;;;5051844;28;20885;-82
2022/08/27 08:41:05;;;;;;;42.00;38.10;;;22.00;99.90;;;;;;5052708;28;20956;-82
2022/08/27 08:43:35;;;;;;;41.13;36.93;;;21.90;99.90;;;;;;5052064;28;20445;-82
2022/08/27 08:46:09;;;;;;;41.80;37.67;;;21.70;99.90;;;;;;5050978;28;20531;-82
2022/08/27 08:48:40;;;;;;;41.00;36.63;;;21.60;99.90;;;;;;5051228;28;20515;-82
2022/08/27 08:51:14;;;;;;;39.50;35.87;;;21.50;99.90;;;;;;5052505;28;20452;-82
2022/08/27 08:53:48;;;;;;;41.20;37.33;;;21.60;99.90;;;;;;5052541;28;20449;-82
2022/08/27 08:56:21;;;;;;;41.57;37.53;;;21.60;99.90;;;;;;5053320;28;20546;-81
2022/08/27 08:58:51;;;;;;;44.27;40.10;;;21.70;99.90;;;;;;5054552;28;20464;-86
2022/08/27 09:01:20;;;;;;;44.67;40.27;;;21.70;99.90;;;;;;5070819;28;20505;-88
2022/08/27 09:03:53;;;;;;;46.03;41.23;;;21.60;99.90;;;;;;5064269;28;20429;-86
2022/08/27 09:06:28;;;;;;;43.60;39.37;;;21.50;99.90;;;;;;5059596;28;20437;-88
2022/08/27 09:08:55;;;;;;;47.80;42.73;;;21.40;99.90;;;;;;5056395;28;20461;-88
2022/08/27 09:11:31;;;;;;;46.37;42.03;;;21.20;99.90;;;;;;5052395;28;20472;-87
2022/08/27 09:14:01;;;;;;;47.63;43.13;;;21.20;99.90;;;;;;5051934;28;20448;-88
2022/08/27 09:16:31;;;;;;;50.43;45.53;;;21.10;99.90;;;;;;5051087;28;20468;-88
2022/08/27 09:18:58;;;;;;;46.97;42.53;;;21.10;99.90;;;;;;5051129;28;20456;-87
2022/08/27 09:21:32;;;;;;;46.03;40.83;;;21.10;99.90;;;;;;5050860;28;20946;-87
2022/08/27 09:24:06;;;;;;;43.13;38.97;;;21.10;99.90;;;;;;5070265;28;20433;-88
2022/08/27 09:26:35;;;;;;;40.37;36.50;;;21.10;99.90;;;;;;5059201;28;20441;-88
2022/08/27 09:29:18;;;;;;;33.07;30.00;;;21.10;99.90;;;;;;5051886;28;20495;-87
2022/08/27 09:31:52;;;;;;;26.13;23.70;;;21.10;99.90;;;;;;5051074;28;20524;-88
2022/08/27 09:34:20;;;;;;;25.90;23.67;;;21.10;99.90;;;;;;5050383;28;20456;-88
2022/08/27 09:36:52;;;;;;;24.60;22.40;;;21.10;99.90;;;;;;5049393;28;20890;-89
2022/08/27 09:39:19;;;;;;;27.30;25.00;;;21.20;99.90;;;;;;5051262;28;20519;-88
2022/08/27 09:41:48;;;;;;;28.23;25.97;;;21.20;99.90;;;;;;5051114;28;20499;-88
2022/08/27 09:44:18;;;;;;;30.80;27.80;;;21.20;99.90;;;;;;5051320;28;20531;-88
2022/08/27 09:46:57;;;;;;;27.90;25.40;;;21.10;99.90;;;;;;5049307;28;20498;-88
2022/08/27 09:49:25;;;;;;;31.40;28.70;;;21.10;99.90;;;;;;5051109;28;20468;-87
2022/08/27 09:51:53;;;;;;;28.67;26.00;;;21.10;99.90;;;;;;5064962;28;20492;-87
2022/08/27 09:54:36;;;;;;;28.00;25.70;;;21.10;99.90;;;;;;5078808;28;20433;-89
2022/08/27 09:57:02;;;;;;;28.30;25.90;;;21.20;99.90;;;;;;5075555;28;20465;-87
2022/08/27 09:59:34;;;;;;;28.43;25.90;;;21.20;99.90;;;;;;5057450;28;20449;-87
2022/08/27 10:02:07;;;;;;;27.53;25.23;;;21.20;99.90;;;;;;5052062;28;21186;-87
2022/08/27 10:04:37;;;;;;;27.83;25.53;;;21.20;99.90;;;;;;5051141;28;20816;-87
2022/08/27 10:07:18;;;;;;;28.43;25.83;;;21.10;99.90;;;;;;5050184;28;20444;-85
2022/08/27 10:09:52;;;;;;;28.70;26.27;;;21.10;99.90;;;;;;5052072;28;20436;-79
2022/08/27 10:12:27;;;;;;;28.93;26.43;;;21.10;99.90;;;;;;5050894;28;20432;-82
2022/08/27 10:14:58;;;;;;;29.33;26.70;;;21.10;99.90;;;;;;5051013;28;20928;-82
2022/08/27 10:17:37;;;;;;;29.03;26.37;;;21.10;99.90;;;;;;5050723;28;20476;-82
2022/08/27 10:20:13;;;;;;;28.70;26.30;;;21.10;99.90;;;;;;5050319;28;20444;-81
2022/08/27 10:22:50;;;;;;;29.03;26.43;;;21.30;99.90;;;;;;5050864;28;20457;-82
2022/08/27 10:25:28;;;;;;;27.73;25.20;;;21.40;99.90;;;;;;5049853;28;20449;-82
2022/08/27 10:28:18;;;;;;;27.47;25.07;;;21.50;99.90;;;;;;5050756;28;20559;-81
2022/08/27 10:30:57;;;;;;;27.30;25.00;;;21.50;99.90;;;;;;5049983;28;20441;-82
2022/08/27 10:33:33;;;;;;;28.30;25.90;;;21.50;99.90;;;;;;5050903;28;21007;-82
2022/08/27 10:36:05;;;;;;;29.10;26.37;;;21.50;99.90;;;;;;5050019;28;20483;-81
2022/08/27 10:38:38;;;;;;;31.50;28.90;;;21.60;99.90;;;;;;5052060;28;20500;-80
2022/08/27 10:41:15;;;;;;;31.27;28.17;;;21.60;99.90;;;;;;5050627;28;20847;-86
2022/08/27 10:44:16;;;;;;;31.23;28.57;;;21.60;99.90;;;;;;5050860;28;20436;-86
2022/08/27 10:46:55;;;;;;;29.57;27.07;;;21.70;99.90;;;;;;5050487;28;20447;-86
2022/08/27 10:49:31;;;;;;;30.90;28.20;;;21.80;99.90;;;;;;5054815;28;20487;-86
2022/08/27 10:52:05;;;;;;;32.47;29.53;;;21.80;99.90;;;;;;5074230;28;20948;-85
2022/08/27 10:54:38;;;;;;;30.77;28.10;;;21.80;99.90;;;;;;5055576;28;20466;-86
2022/08/27 10:57:15;;;;;;;31.13;28.20;;;21.80;99.90;;;;;;5051864;28;20538;-86
2022/08/27 10:59:49;;;;;;;31.37;28.63;;;21.80;99.90;;;;;;5054567;28;20463;-85
2022/08/27 11:02:26;;;;;;;31.73;29.00;;;21.80;99.90;;;;;;5055797;28;20459;-88
2022/08/27 11:04:59;;;;;;;33.90;30.90;;;21.80;99.90;;;;;;5053575;28;20437;-87
2022/08/27 11:07:30;;;;;;;31.73;28.87;;;21.80;99.90;;;;;;5055246;28;20449;-92
2022/08/27 11:10:00;;;;;;;33.73;30.47;;;21.80;99.90;;;;;;5051902;28;20996;-87
2022/08/27 11:12:33;;;;;;;34.30;31.00;;;21.90;99.90;;;;;;5058679;28;20463;-86
2022/08/27 11:15:11;;;;;;;32.53;29.73;;;22.00;99.90;;;;;;5070954;28;20444;-93
2022/08/27 11:17:42;;;;;;;32.10;29.30;;;22.00;99.90;;;;;;5063863;28;20544;-88
2022/08/27 11:20:15;;;;;;;35.50;32.10;;;22.00;99.90;;;;;;5052669;28;20452;-88
2022/08/27 11:22:47;;;;;;;35.27;32.07;;;22.00;99.90;;;;;;5052525;28;20937;-87
2022/08/27 11:25:30;;;;;;;33.47;30.30;;;21.90;99.90;;;;;;5049899;28;20491;-87
2022/08/27 11:27:59;;;;;;;35.80;32.10;;;21.80;99.90;;;;;;5051510;28;20464;-87
2022/08/27 11:30:31;;;;;;;36.37;32.60;;;21.80;99.90;;;;;;5053426;28;20518;-87
2022/08/27 11:33:06;;;;;;;34.10;30.83;;;21.70;99.90;;;;;;5052799;28;20452;-87
2022/08/27 11:35:49;;;;;;;37.37;33.90;;;21.70;99.90;;;;;;5051879;28;20436;-87
2022/08/27 11:38:36;;;;;;;33.33;30.23;;;21.70;99.90;;;;;;5047693;28;20457;-87
2022/08/27 11:41:17;;;;;;;32.20;29.30;;;21.60;99.90;;;;;;5050887;28;20473;-83
2022/08/27 11:43:45;;;;;;;36.00;32.87;;;21.50;99.90;;;;;;5052467;28;20432;-84
2022/08/27 11:46:21;;;;;;;36.40;32.87;;;21.60;99.90;;;;;;5052145;28;21025;-83
2022/08/27 11:48:58;;;;;;;35.33;32.13;;;21.60;99.90;;;;;;5049884;28;20460;-85
2022/08/27 11:51:33;;;;;;;34.63;31.43;;;21.70;99.90;;;;;;5050540;28;20531;-83
2022/08/27 11:54:02;;;;;;;35.00;32.00;;;21.70;99.90;;;;;;5066588;28;20443;-83
2022/08/27 11:56:41;;;;;;;35.30;32.20;;;21.80;99.90;;;;;;5071575;28;20540;-82
2022/08/27 11:59:30;;;;;;;35.47;32.07;;;21.80;99.90;;;;;;5056878;28;20578;-82
2022/08/27 12:02:09;;;;;;;35.20;31.97;;;21.80;99.90;;;;;;5054016;28;20447;-83
2022/08/27 12:04:39;;;;;;;37.27;33.77;;;21.80;99.90;;;;;;5054972;28;20473;-83
2022/08/27 12:07:26;;;;;;;37.23;33.83;;;21.90;99.90;;;;;;5052362;28;20933;-84
2022/08/27 12:10:04;;;;;;;35.83;32.43;;;21.90;99.90;;;;;;5054570;28;20512;-82
2022/08/27 12:12:51;;;;;;;38.13;34.43;;;22.00;99.90;;;;;;5053436;28;20443;-82
2022/08/27 12:15:24;;;;;;;36.90;33.30;;;22.00;99.90;;;;;;5042433;28;20448;-83
2022/08/27 12:18:02;;;;;;;37.00;33.33;;;22.00;99.90;;;;;;5051312;28;20484;-86
2022/08/27 12:20:43;;;;;;;39.23;35.37;;;22.10;99.90;;;;;;5050721;28;20957;-85
2022/08/27 12:23:40;;;;;;;37.53;34.30;;;22.20;99.90;;;;;;5051904;28;21019;-83
2022/08/27 12:26:18;;;;;;;35.27;32.10;;;22.40;99.90;;;;;;5052123;28;20933;-82
2022/08/27 12:28:45;;;;;;;37.17;33.87;;;22.60;99.90;;;;;;5052843;28;20862;-82
2022/08/27 12:31:18;;;;;;;36.60;33.30;;;22.80;99.90;;;;;;5051147;28;20441;-83
2022/08/27 12:33:48;;;;;;;35.13;31.83;;;22.90;99.90;;;;;;5051799;28;20448;-83
2022/08/27 12:36:19;;;;;;;34.90;31.80;;;23.00;99.90;;;;;;5052104;28;20934;-82
2022/08/27 12:38:51;;;;;;;35.33;32.43;;;23.10;99.90;;;;;;5048526;28;20453;-82
2022/08/27 12:41:26;;;;;;;34.57;31.57;;;23.30;99.90;;;;;;5051294;28;20450;-84
2022/08/27 12:44:03;;;;;;;34.07;30.93;;;23.50;99.90;;;;;;5051676;28;20448;-82
2022/08/27 12:46:30;;;;;;;35.47;32.10;;;23.60;99.90;;;;;;5075373;28;20465;-82
2022/08/27 12:48:59;;;;;;;34.10;31.03;;;23.80;99.90;;;;;;5055525;28;20526;-82